sensor_id;sensor_type;location;lat;lon;timestamp;pressure;altitude;pressure_sealevel;temperature;humidity
9672;BME280;4874;43.568;27.824;2023-03-20T00:01:44;99447.59;;;6.56;100.00
9672;BME280;4874;43.568;27.824;2023-03-20T00:04:12;99439.56;;;6.58;100.00
9672;BME280;4874;43.568;27.824;2023-03-20T00:06:39;99441.16;;;6.23;100.00
9672;BME280;4874;43.568;27.824;2023-03-20T00:09:05;99434.59;;;6.53;100.00
9672;BME280;4874;43.568;27.824;2023-03-20T00:11:35;99394.22;;;6.40;100.00
9672;BME280;4874;43.568;27.824;2023-03-20T00:14:09;99424.94;;;6.16;100.00
9672;BME280;4874;43.568;27.824;2023-03-20T00:16:42;99432.31;;;6.11;100.00
9672;BME280;4874;43.568;27.824;2023-03-20T00:19:17;99424.19;;;6.14;100.00
9672;BME280;4874;43.568;27.824;2023-03-20T00:21:45;99383.28;;;5.83;100.00
9672;BME280;4874;43.568;27.824;2023-03-20T00:24:14;99418.69;;;6.30;100.00
9672;BME280;4874;43.568;27.824;2023-03-20T00:26:42;99408.97;;;6.55;100.00
9672;BME280;4874;43.568;27.824;2023-03-20T00:29:26;99413.00;;;6.11;100.00
9672;BME280;4874;43.568;27.824;2023-03-20T00:31:54;99392.97;;;6.21;100.00
9672;BME280;4874;43.568;27.824;2023-03-20T00:34:23;99415.50;;;6.50;100.00
9672;BME280;4874;43.568;27.824;2023-03-20T00:36:52;99407.09;;;6.07;100.00
9672;BME280;4874;43.568;27.824;2023-03-20T00:39:19;99401.63;;;5.97;100.00
9672;BME280;4874;43.568;27.824;2023-03-20T00:42:00;99405.56;;;5.78;100.00
9672;BME280;4874;43.568;27.824;2023-03-20T00:44:48;99401.66;;;6.10;100.00
9672;BME280;4874;43.568;27.824;2023-03-20T00:47:17;99405.75;;;5.50;100.00
9672;BME280;4874;43.568;27.824;2023-03-20T00:49:46;99397.75;;;5.51;100.00
9672;BME280;4874;43.568;27.824;2023-03-20T00:52:15;99402.31;;;5.62;100.00
9672;BME280;4874;43.568;27.824;2023-03-20T00:54:42;99396.25;;;5.99;100.00
9672;BME280;4874;43.568;27.824;2023-03-20T00:59:41;99394.44;;;6.12;100.00
9672;BME280;4874;43.568;27.824;2023-03-20T01:02:15;99399.81;;;6.23;100.00
9672;BME280;4874;43.568;27.824;2023-03-20T01:04:42;99405.44;;;6.19;100.00
9672;BME280;4874;43.568;27.824;2023-03-20T01:07:12;99388.88;;;6.17;100.00
9672;BME280;4874;43.568;27.824;2023-03-20T01:09:40;99400.88;;;6.33;100.00
9672;BME280;4874;43.568;27.824;2023-03-20T01:12:09;99389.94;;;6.02;100.00
9672;BME280;4874;43.568;27.824;2023-03-20T01:14:37;99392.16;;;5.56;100.00
9672;BME280;4874;43.568;27.824;2023-03-20T01:17:03;99398.19;;;5.19;100.00
9672;BME280;4874;43.568;27.824;2023-03-20T01:19:30;99400.88;;;5.05;100.00
9672;BME280;4874;43.568;27.824;2023-03-20T01:21:57;99402.81;;;5.54;100.00
9672;BME280;4874;43.568;27.824;2023-03-20T01:24:23;99402.22;;;5.24;100.00
9672;BME280;4874;43.568;27.824;2023-03-20T01:26:50;99401.56;;;5.60;100.00
9672;BME280;4874;43.568;27.824;2023-03-20T01:29:23;99406.28;;;5.67;100.00
9672;BME280;4874;43.568;27.824;2023-03-20T01:31:51;99397.66;;;5.78;100.00
9672;BME280;4874;43.568;27.824;2023-03-20T01:34:19;99392.56;;;6.14;100.00
9672;BME280;4874;43.568;27.824;2023-03-20T01:36:49;99393.50;;;6.13;100.00
9672;BME280;4874;43.568;27.824;2023-03-20T01:39:17;99352.91;;;5.65;100.00
9672;BME280;4874;43.568;27.824;2023-03-20T01:41:47;99380.94;;;5.91;100.00
9672;BME280;4874;43.568;27.824;2023-03-20T01:44:19;99378.22;;;6.06;100.00
9672;BME280;4874;43.568;27.824;2023-03-20T01:46:50;99350.94;;;6.07;100.00
9672;BME280;4874;43.568;27.824;2023-03-20T01:51:45;99354.28;;;6.09;100.00
9672;BME280;4874;43.568;27.824;2023-03-20T01:56:53;99352.53;;;5.32;100.00
9672;BME280;4874;43.568;27.824;2023-03-20T01:59:35;99365.53;;;5.60;100.00
9672;BME280;4874;43.568;27.824;2023-03-20T02:02:04;99364.22;;;5.92;100.00
9672;BME280;4874;43.568;27.824;2023-03-20T02:04:37;99364.53;;;6.13;100.00
9672;BME280;4874;43.568;27.824;2023-03-20T02:07:06;99355.31;;;5.68;100.00
9672;BME280;4874;43.568;27.824;2023-03-20T02:09:34;99362.72;;;5.88;100.00
9672;BME280;4874;43.568;27.824;2023-03-20T02:12:01;99368.47;;;5.43;100.00
9672;BME280;4874;43.568;27.824;2023-03-20T02:14:28;99352.03;;;5.52;100.00
9672;BME280;4874;43.568;27.824;2023-03-20T02:16:55;99361.34;;;5.83;100.00
9672;BME280;4874;43.568;27.824;2023-03-20T02:19:33;99352.88;;;5.78;100.00
9672;BME280;4874;43.568;27.824;2023-03-20T02:24:59;99347.88;;;5.87;100.00
9672;BME280;4874;43.568;27.824;2023-03-20T02:39:31;99349.22;;;5.68;100.00
9672;BME280;4874;43.568;27.824;2023-03-20T02:42:17;99354.63;;;5.27;100.00
9672;BME280;4874;43.568;27.824;2023-03-20T02:45:07;99343.00;;;5.81;100.00
9672;BME280;4874;43.568;27.824;2023-03-20T02:47:52;99344.06;;;5.91;100.00
9672;BME280;4874;43.568;27.824;2023-03-20T02:50:32;99342.56;;;5.62;100.00
9672;BME280;4874;43.568;27.824;2023-03-20T02:53:14;99337.31;;;6.00;100.00
9672;BME280;4874;43.568;27.824;2023-03-20T02:56:16;99319.72;;;5.63;100.00
9672;BME280;4874;43.568;27.824;2023-03-20T02:58:56;99327.81;;;5.47;100.00
9672;BME280;4874;43.568;27.824;2023-03-20T03:01:31;99325.41;;;5.82;100.00
9672;BME280;4874;43.568;27.824;2023-03-20T03:04:07;99332.34;;;5.58;100.00
9672;BME280;4874;43.568;27.824;2023-03-20T03:06:37;99322.69;;;5.83;100.00
9672;BME280;4874;43.568;27.824;2023-03-20T03:09:13;99332.91;;;6.01;100.00
9672;BME280;4874;43.568;27.824;2023-03-20T03:11:48;99327.28;;;5.80;100.00
9672;BME280;4874;43.568;27.824;2023-03-20T03:14:35;99331.97;;;6.02;100.00
9672;BME280;4874;43.568;27.824;2023-03-20T03:17:04;99334.59;;;6.02;100.00
9672;BME280;4874;43.568;27.824;2023-03-20T03:19:35;99316.09;;;6.27;100.00
9672;BME280;4874;43.568;27.824;2023-03-20T03:22:03;99331.63;;;6.19;100.00
9672;BME280;4874;43.568;27.824;2023-03-20T03:24:32;99337.25;;;6.50;100.00
9672;BME280;4874;43.568;27.824;2023-03-20T03:27:14;99345.63;;;6.32;100.00
9672;BME280;4874;43.568;27.824;2023-03-20T03:29:47;99346.38;;;6.21;100.00
9672;BME280;4874;43.568;27.824;2023-03-20T03:32:24;99337.53;;;6.10;100.00
9672;BME280;4874;43.568;27.824;2023-03-20T03:34:52;99338.75;;;6.29;100.00
9672;BME280;4874;43.568;27.824;2023-03-20T03:38:09;99319.13;;;6.46;100.00
9672;BME280;4874;43.568;27.824;2023-03-20T03:43:18;99349.50;;;6.39;100.00
9672;BME280;4874;43.568;27.824;2023-03-20T03:46:21;99346.13;;;6.37;100.00
9672;BME280;4874;43.568;27.824;2023-03-20T03:48:54;99314.09;;;6.30;100.00
9672;BME280;4874;43.568;27.824;2023-03-20T03:51:24;99342.41;;;6.03;100.00
9672;BME280;4874;43.568;27.824;2023-03-20T03:53:59;99349.00;;;6.34;100.00
9672;BME280;4874;43.568;27.824;2023-03-20T03:56:28;99349.56;;;5.88;100.00
9672;BME280;4874;43.568;27.824;2023-03-20T03:58:59;99340.06;;;5.98;100.00
9672;BME280;4874;43.568;27.824;2023-03-20T04:01:30;99345.72;;;6.30;100.00
9672;BME280;4874;43.568;27.824;2023-03-20T04:04:03;99301.28;;;6.13;100.00
9672;BME280;4874;43.568;27.824;2023-03-20T04:06:32;99316.44;;;6.22;100.00
9672;BME280;4874;43.568;27.824;2023-03-20T04:08:59;99339.81;;;6.39;100.00
9672;BME280;4874;43.568;27.824;2023-03-20T04:11:26;99344.34;;;6.25;100.00
9672;BME280;4874;43.568;27.824;2023-03-20T04:13:55;99339.59;;;6.42;100.00
9672;BME280;4874;43.568;27.824;2023-03-20T04:16:23;99338.03;;;6.63;100.00
9672;BME280;4874;43.568;27.824;2023-03-20T04:18:51;99339.97;;;6.61;100.00
9672;BME280;4874;43.568;27.824;2023-03-20T04:21:18;99343.16;;;6.41;100.00
9672;BME280;4874;43.568;27.824;2023-03-20T04:23:45;99345.34;;;6.60;100.00
9672;BME280;4874;43.568;27.824;2023-03-20T04:26:12;99338.41;;;6.46;100.00
9672;BME280;4874;43.568;27.824;2023-03-20T04:28:38;99344.00;;;6.42;100.00
9672;BME280;4874;43.568;27.824;2023-03-20T04:31:05;99337.81;;;6.66;100.00
9672;BME280;4874;43.568;27.824;2023-03-20T04:33:32;99332.06;;;6.49;100.00
9672;BME280;4874;43.568;27.824;2023-03-20T04:35:59;99348.56;;;6.63;100.00
9672;BME280;4874;43.568;27.824;2023-03-20T04:38:26;99330.91;;;6.53;100.00
9672;BME280;4874;43.568;27.824;2023-03-20T04:40:53;99348.06;;;6.58;100.00
9672;BME280;4874;43.568;27.824;2023-03-20T04:43:19;99352.16;;;6.26;100.00
9672;BME280;4874;43.568;27.824;2023-03-20T04:45:46;99354.22;;;6.46;100.00
9672;BME280;4874;43.568;27.824;2023-03-20T04:48:13;99358.72;;;6.08;100.00
9672;BME280;4874;43.568;27.824;2023-03-20T04:50:39;99359.66;;;5.82;100.00
9672;BME280;4874;43.568;27.824;2023-03-20T04:53:07;99369.78;;;6.13;100.00
9672;BME280;4874;43.568;27.824;2023-03-20T04:55:33;99356.91;;;6.21;100.00
9672;BME280;4874;43.568;27.824;2023-03-20T04:58:01;99361.69;;;6.65;100.00
9672;BME280;4874;43.568;27.824;2023-03-20T05:00:27;99338.44;;;6.34;100.00
9672;BME280;4874;43.568;27.824;2023-03-20T05:02:54;99367.13;;;6.74;100.00
9672;BME280;4874;43.568;27.824;2023-03-20T05:05:21;99356.44;;;6.40;100.00
9672;BME280;4874;43.568;27.824;2023-03-20T05:07:49;99364.88;;;6.45;100.00
9672;BME280;4874;43.568;27.824;2023-03-20T05:10:17;99359.19;;;6.51;100.00
9672;BME280;4874;43.568;27.824;2023-03-20T05:12:44;99357.66;;;6.23;100.00
9672;BME280;4874;43.568;27.824;2023-03-20T05:15:11;99356.06;;;6.21;100.00
9672;BME280;4874;43.568;27.824;2023-03-20T05:17:38;99359.25;;;6.62;100.00
9672;BME280;4874;43.568;27.824;2023-03-20T05:20:05;99350.81;;;6.08;100.00
9672;BME280;4874;43.568;27.824;2023-03-20T05:22:32;99359.31;;;6.24;100.00
9672;BME280;4874;43.568;27.824;2023-03-20T05:24:58;99362.97;;;6.47;100.00
9672;BME280;4874;43.568;27.824;2023-03-20T05:27:26;99356.06;;;6.33;100.00
9672;BME280;4874;43.568;27.824;2023-03-20T05:29:53;99343.25;;;6.52;100.00
9672;BME280;4874;43.568;27.824;2023-03-20T05:32:20;99343.00;;;6.19;100.00
9672;BME280;4874;43.568;27.824;2023-03-20T05:34:46;99377.09;;;6.58;100.00
9672;BME280;4874;43.568;27.824;2023-03-20T05:37:13;99380.13;;;6.29;100.00
9672;BME280;4874;43.568;27.824;2023-03-20T05:39:40;99375.59;;;5.93;100.00
9672;BME280;4874;43.568;27.824;2023-03-20T05:42:06;99380.41;;;5.74;100.00
9672;BME280;4874;43.568;27.824;2023-03-20T05:44:33;99383.72;;;6.15;100.00
9672;BME280;4874;43.568;27.824;2023-03-20T05:47:00;99380.75;;;6.32;100.00
9672;BME280;4874;43.568;27.824;2023-03-20T05:49:26;99373.78;;;5.93;100.00
9672;BME280;4874;43.568;27.824;2023-03-20T05:51:53;99381.03;;;6.28;100.00
9672;BME280;4874;43.568;27.824;2023-03-20T05:54:20;99383.22;;;6.46;100.00
9672;BME280;4874;43.568;27.824;2023-03-20T05:56:47;99375.59;;;6.67;100.00
9672;BME280;4874;43.568;27.824;2023-03-20T05:59:14;99374.53;;;6.69;100.00
9672;BME280;4874;43.568;27.824;2023-03-20T06:01:40;99370.78;;;6.84;100.00
9672;BME280;4874;43.568;27.824;2023-03-20T06:04:07;99366.75;;;6.55;100.00
9672;BME280;4874;43.568;27.824;2023-03-20T06:06:34;99364.38;;;6.99;100.00
9672;BME280;4874;43.568;27.824;2023-03-20T06:09:04;99366.81;;;7.02;100.00
9672;BME280;4874;43.568;27.824;2023-03-20T06:11:31;99355.91;;;6.83;100.00
9672;BME280;4874;43.568;27.824;2023-03-20T06:13:59;99364.84;;;6.57;100.00
9672;BME280;4874;43.568;27.824;2023-03-20T06:16:26;99367.22;;;6.24;100.00
9672;BME280;4874;43.568;27.824;2023-03-20T06:18:53;99365.63;;;6.34;100.00
9672;BME280;4874;43.568;27.824;2023-03-20T06:21:20;99362.97;;;6.47;100.00
9672;BME280;4874;43.568;27.824;2023-03-20T06:23:47;99372.25;;;6.52;100.00
9672;BME280;4874;43.568;27.824;2023-03-20T06:26:13;99369.88;;;6.37;100.00
9672;BME280;4874;43.568;27.824;2023-03-20T06:28:41;99377.00;;;6.60;100.00
9672;BME280;4874;43.568;27.824;2023-03-20T06:31:07;99376.72;;;6.39;100.00
9672;BME280;4874;43.568;27.824;2023-03-20T06:33:35;99374.28;;;6.36;100.00
9672;BME280;4874;43.568;27.824;2023-03-20T06:36:03;99355.19;;;6.45;100.00
9672;BME280;4874;43.568;27.824;2023-03-20T06:38:30;99387.13;;;6.89;100.00
9672;BME280;4874;43.568;27.824;2023-03-20T06:40:57;99349.28;;;6.78;100.00
9672;BME280;4874;43.568;27.824;2023-03-20T06:43:23;99383.09;;;7.44;100.00
9672;BME280;4874;43.568;27.824;2023-03-20T06:45:51;99388.97;;;7.24;100.00
9672;BME280;4874;43.568;27.824;2023-03-20T06:48:17;99387.31;;;7.23;100.00
9672;BME280;4874;43.568;27.824;2023-03-20T06:50:51;99385.41;;;7.01;100.00
9672;BME280;4874;43.568;27.824;2023-03-20T06:53:18;99393.53;;;7.45;100.00
9672;BME280;4874;43.568;27.824;2023-03-20T06:55:49;99382.41;;;7.64;100.00
9672;BME280;4874;43.568;27.824;2023-03-20T06:58:17;99384.81;;;7.67;100.00
9672;BME280;4874;43.568;27.824;2023-03-20T07:00:44;99386.03;;;7.74;100.00
9672;BME280;4874;43.568;27.824;2023-03-20T07:03:11;99381.25;;;7.68;100.00
9672;BME280;4874;43.568;27.824;2023-03-20T07:05:38;99389.41;;;7.76;100.00
9672;BME280;4874;43.568;27.824;2023-03-20T07:08:06;99388.72;;;7.15;100.00
9672;BME280;4874;43.568;27.824;2023-03-20T07:10:34;99378.38;;;7.12;100.00
9672;BME280;4874;43.568;27.824;2023-03-20T07:13:01;99379.38;;;7.23;100.00
9672;BME280;4874;43.568;27.824;2023-03-20T07:15:28;99378.78;;;7.19;100.00
9672;BME280;4874;43.568;27.824;2023-03-20T07:17:55;99382.25;;;7.54;100.00
9672;BME280;4874;43.568;27.824;2023-03-20T07:20:22;99380.47;;;7.55;100.00
9672;BME280;4874;43.568;27.824;2023-03-20T07:22:49;99380.06;;;7.94;100.00
9672;BME280;4874;43.568;27.824;2023-03-20T07:25:16;99347.91;;;7.43;100.00
9672;BME280;4874;43.568;27.824;2023-03-20T07:27:49;99288.72;;;7.57;100.00
9672;BME280;4874;43.568;27.824;2023-03-20T07:30:16;99389.72;;;8.17;100.00
9672;BME280;4874;43.568;27.824;2023-03-20T07:32:44;99381.97;;;8.38;100.00
9672;BME280;4874;43.568;27.824;2023-03-20T07:35:11;99373.66;;;8.53;100.00
9672;BME280;4874;43.568;27.824;2023-03-20T07:37:38;99346.72;;;7.47;100.00
9672;BME280;4874;43.568;27.824;2023-03-20T07:40:07;99379.53;;;7.56;100.00
9672;BME280;4874;43.568;27.824;2023-03-20T07:42:34;99296.56;;;7.24;100.00
9672;BME280;4874;43.568;27.824;2023-03-20T07:45:01;99283.66;;;6.97;100.00
9672;BME280;4874;43.568;27.824;2023-03-20T07:47:29;99382.03;;;8.03;100.00
9672;BME280;4874;43.568;27.824;2023-03-20T07:49:56;99386.34;;;8.04;100.00
9672;BME280;4874;43.568;27.824;2023-03-20T07:52:23;99373.78;;;8.41;100.00
9672;BME280;4874;43.568;27.824;2023-03-20T07:54:50;99366.75;;;8.73;100.00
9672;BME280;4874;43.568;27.824;2023-03-20T07:57:17;99386.75;;;8.55;100.00
9672;BME280;4874;43.568;27.824;2023-03-20T07:59:44;99373.97;;;8.82;100.00
9672;BME280;4874;43.568;27.824;2023-03-20T08:02:15;99374.38;;;9.09;100.00
9672;BME280;4874;43.568;27.824;2023-03-20T08:04:43;99372.19;;;9.14;100.00
9672;BME280;4874;43.568;27.824;2023-03-20T08:07:10;99373.97;;;9.24;100.00
9672;BME280;4874;43.568;27.824;2023-03-20T08:09:37;99348.72;;;9.41;100.00
9672;BME280;4874;43.568;27.824;2023-03-20T08:12:04;99378.41;;;8.81;100.00
9672;BME280;4874;43.568;27.824;2023-03-20T08:14:31;99354.56;;;8.92;100.00
9672;BME280;4874;43.568;27.824;2023-03-20T08:16:58;99375.22;;;9.41;100.00
9672;BME280;4874;43.568;27.824;2023-03-20T08:19:39;99369.41;;;9.15;100.00
9672;BME280;4874;43.568;27.824;2023-03-20T08:22:06;99375.47;;;9.38;100.00
9672;BME280;4874;43.568;27.824;2023-03-20T08:24:33;99307.81;;;9.13;100.00
9672;BME280;4874;43.568;27.824;2023-03-20T08:26:59;99367.75;;;9.46;100.00
9672;BME280;4874;43.568;27.824;2023-03-20T08:29:26;99379.06;;;9.05;100.00
9672;BME280;4874;43.568;27.824;2023-03-20T08:31:53;99375.22;;;9.41;100.00
9672;BME280;4874;43.568;27.824;2023-03-20T08:34:20;99372.09;;;9.36;100.00
9672;BME280;4874;43.568;27.824;2023-03-20T08:36:49;99368.84;;;9.85;100.00
9672;BME280;4874;43.568;27.824;2023-03-20T08:39:17;99383.66;;;10.28;100.00
9672;BME280;4874;43.568;27.824;2023-03-20T08:41:44;99376.63;;;9.77;100.00
9672;BME280;4874;43.568;27.824;2023-03-20T08:44:12;99376.63;;;10.48;100.00
9672;BME280;4874;43.568;27.824;2023-03-20T08:46:39;99373.13;;;9.56;100.00
9672;BME280;4874;43.568;27.824;2023-03-20T08:49:05;99373.75;;;9.48;100.00
9672;BME280;4874;43.568;27.824;2023-03-20T08:51:32;99376.03;;;9.94;100.00
9672;BME280;4874;43.568;27.824;2023-03-20T08:53:59;99364.91;;;9.59;100.00
9672;BME280;4874;43.568;27.824;2023-03-20T08:56:26;99368.16;;;8.99;100.00
9672;BME280;4874;43.568;27.824;2023-03-20T08:58:53;99365.16;;;9.24;100.00
9672;BME280;4874;43.568;27.824;2023-03-20T09:01:22;99341.59;;;8.89;100.00
9672;BME280;4874;43.568;27.824;2023-03-20T09:03:49;99376.22;;;9.61;100.00
9672;BME280;4874;43.568;27.824;2023-03-20T09:06:15;99367.19;;;10.25;100.00
9672;BME280;4874;43.568;27.824;2023-03-20T09:08:42;99362.03;;;10.73;100.00
9672;BME280;4874;43.568;27.824;2023-03-20T09:11:09;99365.00;;;9.68;100.00
9672;BME280;4874;43.568;27.824;2023-03-20T09:13:36;99357.84;;;10.10;100.00
9672;BME280;4874;43.568;27.824;2023-03-20T09:16:02;99365.75;;;9.80;100.00
9672;BME280;4874;43.568;27.824;2023-03-20T09:18:30;99347.25;;;10.89;100.00
9672;BME280;4874;43.568;27.824;2023-03-20T09:20:56;99354.31;;;11.38;100.00
9672;BME280;4874;43.568;27.824;2023-03-20T09:23:23;99361.44;;;11.37;100.00
9672;BME280;4874;43.568;27.824;2023-03-20T09:25:50;99350.91;;;10.98;100.00
9672;BME280;4874;43.568;27.824;2023-03-20T09:28:17;99350.66;;;11.48;100.00
9672;BME280;4874;43.568;27.824;2023-03-20T09:30:44;99342.25;;;11.81;100.00
9672;BME280;4874;43.568;27.824;2023-03-20T09:33:11;99340.13;;;10.90;100.00
9672;BME280;4874;43.568;27.824;2023-03-20T09:35:40;99343.41;;;11.79;100.00
9672;BME280;4874;43.568;27.824;2023-03-20T09:38:09;99348.66;;;12.44;100.00
9672;BME280;4874;43.568;27.824;2023-03-20T09:40:50;99335.84;;;12.57;100.00
9672;BME280;4874;43.568;27.824;2023-03-20T09:51:27;99300.00;;;11.78;100.00
9672;BME280;4874;43.568;27.824;2023-03-20T09:54:09;99326.22;;;12.10;100.00
9672;BME280;4874;43.568;27.824;2023-03-20T09:56:40;99316.44;;;12.01;100.00
9672;BME280;4874;43.568;27.824;2023-03-20T09:59:07;99314.03;;;12.44;100.00
9672;BME280;4874;43.568;27.824;2023-03-20T10:01:47;99317.88;;;12.86;100.00
9672;BME280;4874;43.568;27.824;2023-03-20T10:04:16;99317.63;;;13.07;100.00
9672;BME280;4874;43.568;27.824;2023-03-20T10:06:43;99303.97;;;13.45;100.00
9672;BME280;4874;43.568;27.824;2023-03-20T10:09:26;99296.03;;;14.04;100.00
9672;BME280;4874;43.568;27.824;2023-03-20T10:19:54;99289.22;;;13.16;100.00
9672;BME280;4874;43.568;27.824;2023-03-20T10:22:35;99286.00;;;13.73;100.00
9672;BME280;4874;43.568;27.824;2023-03-20T10:28:00;99259.75;;;12.72;100.00
9672;BME280;4874;43.568;27.824;2023-03-20T10:36:09;99203.91;;;14.00;100.00
9672;BME280;4874;43.568;27.824;2023-03-20T10:41:16;99273.44;;;13.91;100.00
9672;BME280;4874;43.568;27.824;2023-03-20T10:43:46;99275.19;;;13.74;100.00
9672;BME280;4874;43.568;27.824;2023-03-20T10:46:18;99274.22;;;13.83;100.00
9672;BME280;4874;43.568;27.824;2023-03-20T10:49:08;99287.91;;;13.63;100.00
9672;BME280;4874;43.568;27.824;2023-03-20T10:54:21;99265.09;;;14.19;100.00
9672;BME280;4874;43.568;27.824;2023-03-20T10:56:51;99262.84;;;14.98;100.00
9672;BME280;4874;43.568;27.824;2023-03-20T11:01:48;99255.03;;;15.29;100.00
9672;BME280;4874;43.568;27.824;2023-03-20T11:04:15;99242.50;;;15.29;100.00
9672;BME280;4874;43.568;27.824;2023-03-20T11:07:46;99240.81;;;15.04;100.00
9672;BME280;4874;43.568;27.824;2023-03-20T11:15:24;99228.28;;;14.97;100.00
9672;BME280;4874;43.568;27.824;2023-03-20T11:17:52;99215.75;;;15.21;100.00
9672;BME280;4874;43.568;27.824;2023-03-20T11:20:20;99223.59;;;14.91;100.00
9672;BME280;4874;43.568;27.824;2023-03-20T11:22:47;99218.94;;;15.49;100.00
9672;BME280;4874;43.568;27.824;2023-03-20T11:27:57;99215.19;;;15.82;100.00
9672;BME280;4874;43.568;27.824;2023-03-20T11:30:44;99210.34;;;16.63;100.00
9672;BME280;4874;43.568;27.824;2023-03-20T11:33:29;99197.44;;;15.97;100.00
9672;BME280;4874;43.568;27.824;2023-03-20T11:35:57;99189.72;;;16.02;100.00
9672;BME280;4874;43.568;27.824;2023-03-20T11:38:24;99202.69;;;16.13;100.00
9672;BME280;4874;43.568;27.824;2023-03-20T11:40:51;99208.88;;;14.87;100.00
9672;BME280;4874;43.568;27.824;2023-03-20T11:43:24;99198.44;;;14.36;100.00
9672;BME280;4874;43.568;27.824;2023-03-20T11:45:57;99201.06;;;15.09;100.00
9672;BME280;4874;43.568;27.824;2023-03-20T11:48:36;99201.69;;;15.27;100.00
9672;BME280;4874;43.568;27.824;2023-03-20T11:51:09;99200.88;;;15.43;100.00
9672;BME280;4874;43.568;27.824;2023-03-20T11:53:41;99187.16;;;15.14;100.00
9672;BME280;4874;43.568;27.824;2023-03-20T11:56:23;99149.22;;;15.26;100.00
9672;BME280;4874;43.568;27.824;2023-03-20T11:58:57;99176.81;;;14.95;100.00
9672;BME280;4874;43.568;27.824;2023-03-20T12:01:27;99176.47;;;15.14;100.00
9672;BME280;4874;43.568;27.824;2023-03-20T12:06:25;99168.91;;;16.04;100.00
9672;BME280;4874;43.568;27.824;2023-03-20T12:08:56;99165.50;;;16.26;100.00
9672;BME280;4874;43.568;27.824;2023-03-20T12:14:07;99180.28;;;15.68;100.00
9672;BME280;4874;43.568;27.824;2023-03-20T12:16:38;99170.94;;;15.56;100.00
9672;BME280;4874;43.568;27.824;2023-03-20T12:19:11;99156.75;;;14.99;100.00
9672;BME280;4874;43.568;27.824;2023-03-20T12:22:00;99156.06;;;14.57;100.00
9672;BME280;4874;43.568;27.824;2023-03-20T12:24:36;99164.28;;;13.80;100.00
9672;BME280;4874;43.568;27.824;2023-03-20T12:32:25;99147.25;;;14.72;100.00
9672;BME280;4874;43.568;27.824;2023-03-20T12:34:59;99153.09;;;14.84;100.00
9672;BME280;4874;43.568;27.824;2023-03-20T12:37:28;99149.59;;;14.99;100.00
9672;BME280;4874;43.568;27.824;2023-03-20T12:39:59;99140.72;;;14.09;100.00
9672;BME280;4874;43.568;27.824;2023-03-20T12:43:17;99145.72;;;15.18;100.00
9672;BME280;4874;43.568;27.824;2023-03-20T12:45:41;99144.19;;;13.93;100.00
9672;BME280;4874;43.568;27.824;2023-03-20T12:50:52;99125.69;;;14.00;100.00
9672;BME280;4874;43.568;27.824;2023-03-20T12:59:41;99131.25;;;13.39;100.00
9672;BME280;4874;43.568;27.824;2023-03-20T13:02:29;99128.03;;;14.77;100.00
9672;BME280;4874;43.568;27.824;2023-03-20T13:05:06;99130.25;;;14.15;100.00
9672;BME280;4874;43.568;27.824;2023-03-20T13:13:08;99117.22;;;13.37;100.00
9672;BME280;4874;43.568;27.824;2023-03-20T13:15:58;99114.16;;;13.91;100.00
9672;BME280;4874;43.568;27.824;2023-03-20T13:21:16;99114.28;;;14.32;100.00
9672;BME280;4874;43.568;27.824;2023-03-20T13:26:29;99127.22;;;13.61;100.00
9672;BME280;4874;43.568;27.824;2023-03-20T13:29:41;99099.44;;;13.79;100.00
9672;BME280;4874;43.568;27.824;2023-03-20T13:37:34;99107.78;;;14.50;100.00
9672;BME280;4874;43.568;27.824;2023-03-20T13:40:15;99111.75;;;13.72;100.00
9672;BME280;4874;43.568;27.824;2023-03-20T13:45:39;99104.84;;;13.54;100.00
9672;BME280;4874;43.568;27.824;2023-03-20T14:04:50;99107.25;;;12.96;100.00
9672;BME280;4874;43.568;27.824;2023-03-20T14:07:48;99097.09;;;12.91;100.00
9672;BME280;4874;43.568;27.824;2023-03-20T14:12:55;99105.97;;;12.57;100.00
9672;BME280;4874;43.568;27.824;2023-03-20T14:15:26;99098.53;;;12.25;100.00
9672;BME280;4874;43.568;27.824;2023-03-20T14:17:53;99091.19;;;12.80;100.00
9672;BME280;4874;43.568;27.824;2023-03-20T14:20:39;99096.84;;;12.59;100.00
9672;BME280;4874;43.568;27.824;2023-03-20T14:23:16;99078.81;;;12.53;100.00
9672;BME280;4874;43.568;27.824;2023-03-20T14:25:46;99105.97;;;13.00;100.00
9672;BME280;4874;43.568;27.824;2023-03-20T14:30:45;99092.72;;;12.30;100.00
9672;BME280;4874;43.568;27.824;2023-03-20T14:40:42;99087.41;;;12.65;100.00
9672;BME280;4874;43.568;27.824;2023-03-20T14:43:24;99086.44;;;12.74;100.00
9672;BME280;4874;43.568;27.824;2023-03-20T14:46:05;99083.00;;;12.21;100.00
9672;BME280;4874;43.568;27.824;2023-03-20T14:48:41;99081.78;;;11.98;100.00
9672;BME280;4874;43.568;27.824;2023-03-20T14:53:56;99071.56;;;11.75;100.00
9672;BME280;4874;43.568;27.824;2023-03-20T14:56:28;99076.31;;;12.17;100.00
9672;BME280;4874;43.568;27.824;2023-03-20T14:59:02;99076.50;;;11.70;100.00
9672;BME280;4874;43.568;27.824;2023-03-20T15:04:27;99087.97;;;11.34;100.00
9672;BME280;4874;43.568;27.824;2023-03-20T15:06:58;99085.47;;;11.33;100.00
9672;BME280;4874;43.568;27.824;2023-03-20T15:09:28;99096.47;;;11.01;100.00
9672;BME280;4874;43.568;27.824;2023-03-20T15:11:57;99096.16;;;11.04;100.00
9672;BME280;4874;43.568;27.824;2023-03-20T15:14:34;99089.78;;;11.70;100.00
9672;BME280;4874;43.568;27.824;2023-03-20T15:17:04;99096.41;;;11.20;100.00
9672;BME280;4874;43.568;27.824;2023-03-20T15:19:38;99099.56;;;10.97;100.00
9672;BME280;4874;43.568;27.824;2023-03-20T15:22:13;99103.63;;;10.72;100.00
9672;BME280;4874;43.568;27.824;2023-03-20T15:24:41;99100.09;;;10.91;100.00
9672;BME280;4874;43.568;27.824;2023-03-20T15:27:08;99086.53;;;11.40;100.00
9672;BME280;4874;43.568;27.824;2023-03-20T15:29:36;99092.69;;;11.04;100.00
9672;BME280;4874;43.568;27.824;2023-03-20T15:32:03;99105.56;;;10.89;100.00
9672;BME280;4874;43.568;27.824;2023-03-20T15:34:41;99099.25;;;11.00;100.00
9672;BME280;4874;43.568;27.824;2023-03-20T15:37:14;99097.47;;;10.72;100.00
9672;BME280;4874;43.568;27.824;2023-03-20T15:39:48;99088.97;;;10.68;100.00
9672;BME280;4874;43.568;27.824;2023-03-20T15:42:18;99093.03;;;10.53;100.00
9672;BME280;4874;43.568;27.824;2023-03-20T15:44:47;99086.78;;;10.54;100.00
9672;BME280;4874;43.568;27.824;2023-03-20T15:47:16;99092.63;;;10.19;100.00